Time;durP1;ratioP1;P1;durP2;ratioP2;P2;SDS_P1;SDS_P2;PMS_P1;PMS_P2;Temp;Humidity;BMP_temperature;BMP_pressure;BME280_temperature;BME280_humidity;BME280_pressure;Samples;Min_cycle;Max_cycle;Signal;HPM_P1;HPM_P2
2021/01/26 00:00:10;;;;;;;15.32;9.63;;;3.40;99.90;;;;;;5094410;28;20205;-77
2021/01/26 00:02:36;;;;;;;17.15;10.18;;;3.50;99.90;;;;;;5096404;28;20197;-77
2021/01/26 00:05:04;;;;;;;14.85;9.43;;;3.70;99.90;;;;;;5107950;28;20224;-77
2021/01/26 00:07:31;;;;;;;14.23;9.43;;;3.40;99.90;;;;;;5112154;28;20212;-77
2021/01/26 00:09:58;;;;;;;11.32;7.68;;;3.40;99.90;;;;;;5109593;28;20268;-77
2021/01/26 00:12:25;;;;;;;12.20;7.35;;;3.30;99.90;;;;;;5111783;28;20221;-77
2021/01/26 00:14:51;;;;;;;12.35;8.40;;;3.50;99.90;;;;;;5098001;28;20225;-77
2021/01/26 00:17:19;;;;;;;12.75;7.30;;;3.40;99.90;;;;;;5091469;28;20350;-77
2021/01/26 00:19:45;;;;;;;13.00;8.35;;;3.20;99.90;;;;;;5100576;28;20333;-77
2021/01/26 00:22:12;;;;;;;12.75;8.23;;;3.10;99.90;;;;;;5109945;28;20204;-77
2021/01/26 00:24:38;;;;;;;12.45;8.15;;;3.20;99.90;;;;;;5103745;28;20220;-77
2021/01/26 00:27:05;;;;;;;12.52;8.20;;;3.20;99.90;;;;;;5104981;28;20200;-77
2021/01/26 00:29:32;;;;;;;11.40;6.95;;;3.40;99.90;;;;;;5110143;28;20336;-76
2021/01/26 00:31:58;;;;;;;12.40;7.95;;;3.20;99.90;;;;;;5106276;28;20293;-76
2021/01/26 00:34:26;;;;;;;12.65;7.47;;;3.20;99.90;;;;;;5110219;28;20228;-77
2021/01/26 00:36:52;;;;;;;10.55;7.35;;;3.20;99.90;;;;;;5111916;28;20667;-77
2021/01/26 00:39:19;;;;;;;11.70;7.57;;;3.30;99.90;;;;;;5094342;28;20258;-77
2021/01/26 00:41:46;;;;;;;11.38;7.82;;;3.40;99.90;;;;;;5090768;28;20201;-77
2021/01/26 00:44:12;;;;;;;10.60;7.25;;;3.30;99.90;;;;;;5103807;28;20222;-78
2021/01/26 00:46:39;;;;;;;9.48;5.90;;;3.50;99.90;;;;;;5091548;28;20580;-77
2021/01/26 00:49:05;;;;;;;10.07;6.70;;;3.30;99.90;;;;;;5102487;28;20224;-77
2021/01/26 00:51:33;;;;;;;13.20;7.93;;;3.30;99.90;;;;;;5111843;28;20595;-77
2021/01/26 00:53:59;;;;;;;12.02;7.55;;;3.40;99.90;;;;;;5110831;28;20221;-77
2021/01/26 00:56:29;;;;;;;14.63;10.15;;;3.30;99.90;;;;;;5111173;28;20204;-77
2021/01/26 00:58:58;;;;;;;12.82;9.00;;;3.10;99.90;;;;;;5095399;28;20647;-77
2021/01/26 01:01:25;;;;;;;11.13;8.30;;;3.00;99.90;;;;;;5093029;28;20286;-77
2021/01/26 01:03:51;;;;;;;19.02;9.15;;;3.20;99.90;;;;;;5106908;28;20270;-77
2021/01/26 01:06:18;;;;;;;12.00;8.30;;;3.00;99.90;;;;;;5095432;28;20278;-77
2021/01/26 01:08:45;;;;;;;11.15;7.43;;;3.30;99.90;;;;;;5097315;28;20209;-77
2021/01/26 01:11:12;;;;;;;11.18;6.78;;;3.20;99.90;;;;;;5093337;28;20336;-77
2021/01/26 01:13:38;;;;;;;10.15;7.00;;;3.20;99.90;;;;;;5093890;28;20215;-77
2021/01/26 01:16:06;;;;;;;11.88;6.97;;;3.30;99.90;;;;;;5110838;28;20212;-77
2021/01/26 01:18:32;;;;;;;10.65;6.75;;;3.30;99.90;;;;;;5112848;28;20197;-77
2021/01/26 01:20:59;;;;;;;9.98;7.00;;;3.10;99.90;;;;;;5111714;28;20246;-76
2021/01/26 01:23:25;;;;;;;9.70;6.55;;;3.20;99.90;;;;;;5110525;28;20193;-77
2021/01/26 01:25:59;;;;;;;10.23;7.20;;;3.10;99.90;;;;;;5111369;28;20220;-77
2021/01/26 01:28:26;;;;;;;10.50;6.82;;;3.10;99.90;;;;;;5110971;28;20356;-77
2021/01/26 01:30:56;;;;;;;9.30;5.75;;;3.30;99.90;;;;;;5110191;28;20216;-78
2021/01/26 01:33:22;;;;;;;8.38;5.78;;;3.10;99.90;;;;;;5108995;28;20255;-77
2021/01/26 01:35:49;;;;;;;9.25;6.18;;;3.10;99.90;;;;;;5091115;28;20562;-77
2021/01/26 01:38:15;;;;;;;10.90;7.15;;;3.00;99.90;;;;;;5098677;28;20678;-77
2021/01/26 01:40:42;;;;;;;10.45;6.50;;;3.10;99.90;;;;;;5101100;28;20205;-76
2021/01/26 01:43:09;;;;;;;10.65;7.00;;;3.10;99.90;;;;;;5109665;28;20228;-79
2021/01/26 01:45:36;;;;;;;10.32;6.40;;;2.90;99.90;;;;;;5100072;28;20220;-78
2021/01/26 01:48:06;;;;;;;12.23;6.90;;;3.20;99.90;;;;;;5098080;28;20209;-77
2021/01/26 01:50:37;;;;;;;12.05;6.88;;;3.10;99.90;;;;;;5091164;28;20232;-77
2021/01/26 01:53:11;;;;;;;9.50;6.40;;;3.10;99.90;;;;;;5104130;28;20282;-77
2021/01/26 01:55:41;;;;;;;8.48;6.10;;;3.00;99.90;;;;;;5102807;28;20220;-77
2021/01/26 01:58:14;;;;;;;9.73;6.35;;;3.00;99.90;;;;;;5103910;28;20197;-77
2021/01/26 02:00:41;;;;;;;9.63;6.30;;;2.90;99.90;;;;;;5100782;28;20283;-77
2021/01/26 02:03:13;;;;;;;9.00;5.60;;;2.90;99.90;;;;;;5109532;28;20226;-77
2021/01/26 02:05:42;;;;;;;9.70;5.90;;;2.80;99.90;;;;;;5095958;28;20353;-77
2021/01/26 02:08:18;;;;;;;9.38;6.03;;;3.00;99.90;;;;;;5105410;28;20204;-77
2021/01/26 02:10:44;;;;;;;8.60;5.70;;;2.80;99.90;;;;;;5106886;28;20296;-77
2021/01/26 02:13:12;;;;;;;9.63;6.60;;;3.00;99.90;;;;;;5089416;28;20302;-77
2021/01/26 02:15:38;;;;;;;10.13;6.03;;;2.90;99.90;;;;;;5101821;28;20235;-77
2021/01/26 02:18:33;;;;;;;9.43;6.32;;;3.00;99.90;;;;;;5109833;28;20251;-78
2021/01/26 02:21:36;;;;;;;9.60;6.00;;;3.00;99.90;;;;;;5110710;28;20226;-77
2021/01/26 02:24:42;;;;;;;10.70;6.18;;;2.90;99.90;;;;;;5098075;28;20740;-77
2021/01/26 02:28:00;;;;;;;11.48;7.18;;;3.00;99.90;;;;;;5098482;28;20221;-77
2021/01/26 02:30:48;;;;;;;9.45;6.18;;;2.80;99.90;;;;;;5090758;28;20260;-77
2021/01/26 02:33:48;;;;;;;13.55;7.18;;;2.90;99.90;;;;;;5106322;28;20578;-77
2021/01/26 02:36:50;;;;;;;8.73;6.45;;;3.00;99.90;;;;;;5088931;28;20202;-77
2021/01/26 02:39:39;;;;;;;10.40;6.55;;;2.90;99.90;;;;;;5074193;28;20204;-77
2021/01/26 02:42:21;;;;;;;10.90;7.32;;;3.00;99.90;;;;;;5088251;28;20219;-77
2021/01/26 02:45:02;;;;;;;12.50;7.43;;;3.10;99.90;;;;;;5089508;28;20228;-77
2021/01/26 02:47:43;;;;;;;10.52;6.65;;;2.90;99.90;;;;;;5088079;28;20251;-77
2021/01/26 02:50:16;;;;;;;10.00;5.85;;;2.80;99.90;;;;;;5090995;28;20196;-77
2021/01/26 02:52:53;;;;;;;8.52;5.55;;;3.00;99.90;;;;;;5108839;28;20228;-76
2021/01/26 02:55:29;;;;;;;9.45;6.07;;;2.90;99.90;;;;;;5095444;28;20258;-77
2021/01/26 02:58:01;;;;;;;13.15;6.40;;;2.90;99.90;;;;;;5110199;28;20234;-77
2021/01/26 03:00:31;;;;;;;11.05;6.15;;;3.10;99.90;;;;;;5111518;28;20224;-77
2021/01/26 03:03:04;;;;;;;12.10;6.75;;;2.90;99.90;;;;;;5110790;28;20207;-77
2021/01/26 03:05:39;;;;;;;11.45;6.95;;;3.20;99.90;;;;;;5112032;28;20476;-77
2021/01/26 03:08:10;;;;;;;10.95;5.82;;;3.10;99.90;;;;;;5094477;28;20227;-77
2021/01/26 03:10:42;;;;;;;10.52;6.18;;;3.20;99.90;;;;;;5113008;28;20220;-77
2021/01/26 03:13:11;;;;;;;11.13;7.03;;;3.20;99.90;;;;;;5096198;28;20887;-77
2021/01/26 03:15:43;;;;;;;10.38;6.90;;;3.20;99.90;;;;;;5116138;28;20803;-77
2021/01/26 03:18:14;;;;;;;9.82;6.30;;;3.10;99.90;;;;;;5110840;28;20208;-77
2021/01/26 03:20:44;;;;;;;11.43;7.22;;;3.20;99.90;;;;;;5110432;28;20732;-77
2021/01/26 03:23:15;;;;;;;10.00;6.05;;;3.20;99.90;;;;;;5106071;28;20205;-77
2021/01/26 03:25:48;;;;;;;10.85;6.28;;;3.00;99.90;;;;;;5113189;28;20235;-76
2021/01/26 03:28:16;;;;;;;9.85;6.75;;;3.00;99.90;;;;;;5113671;28;20208;-77
2021/01/26 03:30:48;;;;;;;11.32;7.07;;;3.10;99.90;;;;;;5113834;28;20307;-78
2021/01/26 03:33:20;;;;;;;14.55;7.55;;;3.10;99.90;;;;;;5102612;28;20221;-77
2021/01/26 03:35:46;;;;;;;14.65;7.18;;;3.10;99.90;;;;;;5097061;28;20243;-78
2021/01/26 03:38:18;;;;;;;11.55;6.60;;;3.00;99.90;;;;;;5113124;28;20201;-78
2021/01/26 03:40:46;;;;;;;12.00;6.65;;;3.00;99.90;;;;;;5113912;28;20266;-78
2021/01/26 03:43:13;;;;;;;10.75;7.10;;;2.80;99.90;;;;;;5095622;28;20197;-78
2021/01/26 03:45:39;;;;;;;12.57;7.47;;;2.80;99.90;;;;;;5114337;28;20220;-78
2021/01/26 03:48:15;;;;;;;10.95;7.20;;;2.90;99.90;;;;;;5114418;28;20212;-78
2021/01/26 03:51:02;;;;;;;11.63;7.38;;;2.80;99.90;;;;;;5094601;28;20663;-78
2021/01/26 03:54:19;;;;;;;14.63;7.30;;;2.90;99.90;;;;;;5102476;28;20219;-77
2021/01/26 03:57:05;;;;;;;13.38;7.50;;;3.10;99.90;;;;;;5016632;28;20200;-77
2021/01/26 03:59:39;;;;;;;10.80;7.00;;;2.80;99.90;;;;;;5028004;28;20269;-77
2021/01/26 04:02:13;;;;;;;11.80;6.78;;;2.80;99.90;;;;;;5060232;28;20204;-78
2021/01/26 04:04:50;;;;;;;11.60;6.40;;;2.90;99.90;;;;;;5102847;28;20724;-77
2021/01/26 04:07:21;;;;;;;11.85;7.20;;;2.70;99.90;;;;;;5113446;28;20200;-77
2021/01/26 04:09:57;;;;;;;10.57;6.90;;;3.00;99.90;;;;;;5112632;28;20200;-77
2021/01/26 04:12:31;;;;;;;11.73;6.78;;;2.90;99.90;;;;;;5107212;28;20231;-78
2021/01/26 04:15:01;;;;;;;10.95;6.85;;;3.00;99.90;;;;;;5091855;28;20306;-78
2021/01/26 04:17:31;;;;;;;9.98;6.43;;;2.80;99.90;;;;;;5100110;28;20269;-78
2021/01/26 04:20:03;;;;;;;10.82;6.13;;;2.80;99.90;;;;;;5108867;28;20270;-78
2021/01/26 04:22:30;;;;;;;10.40;6.65;;;2.80;99.90;;;;;;5112628;28;20193;-78
2021/01/26 04:24:57;;;;;;;10.38;6.90;;;2.80;99.90;;;;;;5111606;28;20264;-77
2021/01/26 04:27:25;;;;;;;11.02;6.70;;;2.90;99.90;;;;;;5112206;28;20205;-77
2021/01/26 04:29:53;;;;;;;10.65;6.35;;;2.80;99.90;;;;;;5096365;28;20581;-77
2021/01/26 04:32:21;;;;;;;13.85;6.30;;;2.90;99.90;;;;;;5096425;28;20393;-77
2021/01/26 04:34:48;;;;;;;10.30;6.43;;;2.70;99.90;;;;;;5111470;28;20216;-77
2021/01/26 04:37:14;;;;;;;9.90;6.90;;;2.80;99.90;;;;;;5111882;28;20208;-78
2021/01/26 04:39:41;;;;;;;10.57;6.45;;;2.90;99.90;;;;;;5108237;28;20258;-78
2021/01/26 04:42:15;;;;;;;7.07;4.85;;;2.80;99.90;;;;;;5094265;28;20197;-78
2021/01/26 04:45:05;;;;;;;8.63;5.95;;;2.90;99.90;;;;;;5094186;28;20231;-78
2021/01/26 04:47:38;;;;;;;9.55;5.38;;;2.90;99.90;;;;;;5101905;28;20211;-78
2021/01/26 04:50:22;;;;;;;11.55;6.05;;;3.00;99.90;;;;;;5112934;28;20208;-78
2021/01/26 04:53:08;;;;;;;11.30;4.97;;;3.00;99.90;;;;;;5105210;28;20216;-78
2021/01/26 04:55:50;;;;;;;11.45;5.40;;;3.10;99.90;;;;;;5109284;28;20305;-78
2021/01/26 04:58:40;;;;;;;7.32;4.53;;;3.00;99.90;;;;;;5104889;28;20490;-77
2021/01/26 05:01:18;;;;;;;15.65;5.30;;;3.00;99.90;;;;;;5097686;28;20201;-78
2021/01/26 05:04:00;;;;;;;8.70;4.53;;;3.00;99.90;;;;;;5105287;28;20196;-77
2021/01/26 05:06:33;;;;;;;9.02;4.78;;;3.10;99.90;;;;;;5114539;28;20219;-78
2021/01/26 05:09:04;;;;;;;8.85;4.95;;;3.00;99.90;;;;;;5100360;28;20216;-78
2021/01/26 05:11:34;;;;;;;9.85;5.22;;;3.20;99.90;;;;;;5098389;28;20265;-77
2021/01/26 05:14:04;;;;;;;7.50;4.05;;;3.20;99.90;;;;;;5098105;28;20233;-78
2021/01/26 05:16:35;;;;;;;8.23;4.28;;;3.20;99.90;;;;;;5111978;28;20226;-78
2021/01/26 05:19:07;;;;;;;8.65;4.80;;;3.10;99.90;;;;;;5099196;28;20213;-77
2021/01/26 05:21:43;;;;;;;8.57;4.35;;;3.10;99.90;;;;;;5096014;28;20208;-78
2021/01/26 05:24:18;;;;;;;10.63;4.20;;;3.10;99.90;;;;;;5100505;28;20227;-78
2021/01/26 05:26:44;;;;;;;7.55;4.30;;;3.30;99.90;;;;;;5112058;28;20203;-78
2021/01/26 05:29:13;;;;;;;10.70;4.72;;;3.30;99.90;;;;;;5111509;28;20227;-78
2021/01/26 05:31:44;;;;;;;8.40;4.95;;;3.30;99.90;;;;;;5112941;28;20212;-78
2021/01/26 05:34:13;;;;;;;7.18;4.55;;;3.30;99.90;;;;;;5095484;28;20288;-78
2021/01/26 05:36:42;;;;;;;8.07;4.20;;;3.30;99.90;;;;;;5108438;28;20299;-78
2021/01/26 05:39:15;;;;;;;8.25;4.55;;;3.50;99.90;;;;;;5110231;28;20201;-78
2021/01/26 05:41:42;;;;;;;6.30;3.75;;;3.30;99.90;;;;;;5101492;28;20835;-78
2021/01/26 05:44:08;;;;;;;7.93;4.13;;;3.40;99.90;;;;;;5092820;28;20729;-78
2021/01/26 05:46:40;;;;;;;7.07;4.10;;;3.30;99.90;;;;;;5093740;28;20197;-78
2021/01/26 05:49:07;;;;;;;6.28;4.30;;;3.30;99.90;;;;;;5104840;28;20200;-77
2021/01/26 05:51:36;;;;;;;8.48;4.63;;;3.50;99.90;;;;;;5110399;28;20279;-77
2021/01/26 05:54:06;;;;;;;8.30;3.90;;;3.40;99.90;;;;;;5094302;28;20228;-78
2021/01/26 05:56:34;;;;;;;8.18;5.05;;;3.40;99.90;;;;;;5105963;28;20204;-77
2021/01/26 05:59:20;;;;;;;9.25;4.03;;;3.20;99.90;;;;;;5113202;28;20634;-78
2021/01/26 06:01:46;;;;;;;8.20;3.22;;;3.20;99.90;;;;;;5095113;28;20208;-78
2021/01/26 06:04:16;;;;;;;8.77;4.65;;;3.30;99.90;;;;;;5110913;28;20589;-78
2021/01/26 06:06:55;;;;;;;6.60;3.55;;;3.40;99.90;;;;;;5091784;28;20208;-77
2021/01/26 06:09:36;;;;;;;8.10;4.20;;;3.50;99.90;;;;;;5109820;28;20288;-78
2021/01/26 06:12:13;;;;;;;9.05;4.22;;;3.50;99.90;;;;;;5111554;28;20613;-78
2021/01/26 06:14:42;;;;;;;10.70;4.28;;;3.50;99.90;;;;;;5112739;28;20713;-78
2021/01/26 06:17:11;;;;;;;7.30;3.17;;;3.50;99.90;;;;;;5113442;28;20208;-78
2021/01/26 06:19:39;;;;;;;8.35;3.10;;;3.40;99.90;;;;;;5111894;28;20678;-78
2021/01/26 06:22:07;;;;;;;8.43;4.68;;;3.60;99.90;;;;;;5111742;28;20200;-78
2021/01/26 06:24:37;;;;;;;8.85;3.83;;;3.70;99.90;;;;;;5112278;28;20322;-78
2021/01/26 06:27:34;;;;;;;8.25;3.97;;;3.50;99.90;;;;;;5111390;28;20686;-79
2021/01/26 06:30:15;;;;;;;10.77;4.20;;;3.50;99.90;;;;;;5111412;28;20215;-79
2021/01/26 06:33:05;;;;;;;7.00;3.50;;;3.40;99.90;;;;;;5096961;28;20341;-79
2021/01/26 06:35:37;;;;;;;6.13;3.50;;;3.50;99.90;;;;;;5111420;28;20285;-79
2021/01/26 06:38:33;;;;;;;8.00;3.28;;;3.60;99.90;;;;;;5111704;28;20697;-78
2021/01/26 06:41:15;;;;;;;8.45;3.17;;;3.60;99.90;;;;;;5094638;28;20499;-78
2021/01/26 06:44:13;;;;;;;6.63;3.25;;;3.40;99.90;;;;;;5112076;28;20644;-78
2021/01/26 06:46:58;;;;;;;6.82;3.10;;;3.50;99.90;;;;;;5111955;28;20208;-78
2021/01/26 06:49:37;;;;;;;7.22;3.10;;;3.70;99.90;;;;;;5116013;28;20651;-78
2021/01/26 06:52:24;;;;;;;6.35;3.38;;;3.50;99.90;;;;;;5114441;28;20224;-80
2021/01/26 06:55:11;;;;;;;8.20;3.60;;;3.50;99.90;;;;;;5114303;28;20220;-79
2021/01/26 06:58:09;;;;;;;5.07;3.33;;;3.80;99.90;;;;;;5115403;28;20200;-79
2021/01/26 07:00:53;;;;;;;6.95;3.67;;;3.50;99.90;;;;;;5096122;28;20648;-79
2021/01/26 07:03:59;;;;;;;6.25;3.35;;;3.60;99.90;;;;;;5100560;28;20203;-79
2021/01/26 07:07:01;;;;;;;8.70;4.00;;;3.70;99.90;;;;;;5106505;28;20204;-79
2021/01/26 07:09:51;;;;;;;6.82;3.25;;;3.50;99.90;;;;;;5098864;28;20277;-80
2021/01/26 07:12:57;;;;;;;7.47;3.40;;;3.50;99.90;;;;;;5109175;28;20228;-80
2021/01/26 07:15:39;;;;;;;6.18;3.67;;;3.80;99.90;;;;;;5027075;28;20314;-79
2021/01/26 07:18:28;;;;;;;7.60;2.95;;;3.60;99.90;;;;;;5099806;28;20212;-79
2021/01/26 07:21:11;;;;;;;10.15;3.60;;;3.60;99.90;;;;;;5109637;28;20215;-79
2021/01/26 07:24:14;;;;;;;9.25;5.30;;;3.60;99.90;;;;;;5089814;28;20193;-79
2021/01/26 07:27:13;;;;;;;6.60;4.03;;;3.60;99.90;;;;;;5090868;28;20209;-78
2021/01/26 07:29:49;;;;;;;8.32;3.63;;;3.70;99.90;;;;;;5092572;28;20205;-79
2021/01/26 07:32:22;;;;;;;7.20;3.13;;;3.60;99.90;;;;;;5093128;28;20713;-79
2021/01/26 07:34:59;;;;;;;12.85;4.05;;;3.70;99.90;;;;;;5090082;28;20614;-79
2021/01/26 07:37:33;;;;;;;7.57;3.55;;;3.60;99.90;;;;;;5091940;28;20209;-79
2021/01/26 07:40:08;;;;;;;6.43;2.70;;;3.70;99.90;;;;;;5096656;28;20213;-78
2021/01/26 07:42:42;;;;;;;5.78;3.33;;;3.70;99.90;;;;;;5099043;28;20197;-78
2021/01/26 07:45:15;;;;;;;5.38;2.75;;;3.80;99.90;;;;;;5094925;28;20239;-78
2021/01/26 07:47:46;;;;;;;7.45;3.10;;;4.00;99.90;;;;;;5100614;28;20202;-78
2021/01/26 07:50:21;;;;;;;7.40;3.22;;;3.70;99.90;;;;;;5102503;28;20274;-78
2021/01/26 07:52:52;;;;;;;4.90;2.80;;;3.90;99.90;;;;;;5099606;28;20231;-79
2021/01/26 07:55:28;;;;;;;7.10;3.13;;;4.00;99.90;;;;;;5091495;28;20273;-78
2021/01/26 07:58:00;;;;;;;8.73;3.10;;;4.10;99.90;;;;;;5093620;28;20201;-78
2021/01/26 08:00:32;;;;;;;10.35;3.25;;;4.00;99.90;;;;;;5093395;28;20291;-78
2021/01/26 08:03:00;;;;;;;7.60;3.28;;;4.10;99.90;;;;;;5079741;28;20559;-79
2021/01/26 08:05:44;;;;;;;3.65;2.42;;;4.20;99.90;;;;;;5092370;28;20229;-79
2021/01/26 08:08:21;;;;;;;7.68;2.95;;;4.00;99.90;;;;;;5092395;28;20209;-79
2021/01/26 08:11:08;;;;;;;7.00;2.95;;;3.90;99.90;;;;;;5095255;28;20208;-78
2021/01/26 08:13:39;;;;;;;6.85;2.15;;;3.90;99.90;;;;;;5081079;28;20230;-78
2021/01/26 08:16:16;;;;;;;6.75;2.33;;;4.20;99.90;;;;;;5076657;28;20214;-78
2021/01/26 08:18:49;;;;;;;4.85;2.10;;;4.20;99.90;;;;;;5087050;28;20644;-78
2021/01/26 08:21:43;;;;;;;5.18;2.72;;;4.20;99.90;;;;;;5097625;28;20557;-78
2021/01/26 08:24:34;;;;;;;7.55;2.50;;;4.30;99.90;;;;;;5082644;28;20249;-79
2021/01/26 08:27:30;;;;;;;5.10;2.60;;;4.20;99.90;;;;;;5096988;28;20562;-79
2021/01/26 08:30:00;;;;;;;5.43;2.53;;;4.30;99.90;;;;;;5061821;28;20205;-78
2021/01/26 08:33:01;;;;;;;8.10;2.80;;;4.40;99.90;;;;;;5093501;28;20268;-78
2021/01/26 08:35:44;;;;;;;12.57;3.50;;;4.20;99.90;;;;;;5078683;28;20228;-78
2021/01/26 08:38:45;;;;;;;7.80;3.20;;;4.30;99.90;;;;;;5093138;28;20228;-75
2021/01/26 08:41:12;;;;;;;5.80;3.35;;;4.10;99.90;;;;;;5090922;28;20270;-75
2021/01/26 08:43:48;;;;;;;7.35;3.50;;;4.00;99.90;;;;;;5092382;28;20205;-78
2021/01/26 08:46:46;;;;;;;6.25;3.70;;;3.80;99.90;;;;;;5086815;28;20202;-78
2021/01/26 08:49:25;;;;;;;7.82;3.88;;;4.10;99.90;;;;;;5082384;28;20201;-77
2021/01/26 08:51:53;;;;;;;8.35;3.95;;;4.00;99.90;;;;;;5094015;28;20205;-76
2021/01/26 08:54:42;;;;;;;10.35;4.63;;;4.00;99.90;;;;;;5086540;28;20218;-78
2021/01/26 08:57:22;;;;;;;11.35;3.85;;;3.90;99.90;;;;;;5071381;28;20288;-75
2021/01/26 08:59:50;;;;;;;8.50;3.88;;;4.00;99.90;;;;;;5070918;28;20656;-75
2021/01/26 09:02:34;;;;;;;10.00;4.03;;;4.10;99.90;;;;;;5091170;28;20620;-75
2021/01/26 09:05:01;;;;;;;8.00;4.03;;;4.10;99.90;;;;;;5090744;28;20232;-75
2021/01/26 09:07:52;;;;;;;8.77;4.22;;;4.00;99.90;;;;;;5090810;28;20874;-75
2021/01/26 09:10:35;;;;;;;6.80;3.90;;;4.00;99.90;;;;;;5090854;28;20207;-75
2021/01/26 09:13:08;;;;;;;5.45;3.45;;;4.00;99.90;;;;;;5090448;28;20240;-75
2021/01/26 09:15:38;;;;;;;6.60;3.90;;;4.00;99.90;;;;;;5076429;28;20222;-75
2021/01/26 09:18:05;;;;;;;8.40;4.00;;;3.90;99.90;;;;;;5070467;28;20788;-75
2021/01/26 09:20:33;;;;;;;8.20;3.33;;;3.90;99.90;;;;;;5070719;28;20206;-75
2021/01/26 09:23:06;;;;;;;5.68;3.60;;;3.90;99.90;;;;;;5070325;28;20201;-74
2021/01/26 09:25:38;;;;;;;8.27;4.10;;;4.20;99.90;;;;;;5070630;28;20229;-75
2021/01/26 09:28:08;;;;;;;7.22;3.10;;;4.10;99.90;;;;;;5089906;28;20875;-75
2021/01/26 09:30:37;;;;;;;6.82;3.65;;;4.00;99.90;;;;;;5093522;28;20209;-78
2021/01/26 09:33:17;;;;;;;6.40;3.40;;;4.10;99.90;;;;;;5074906;28;20222;-78
2021/01/26 09:35:46;;;;;;;6.07;3.05;;;4.20;99.90;;;;;;5073456;28;20618;-78
2021/01/26 09:38:17;;;;;;;11.75;4.30;;;4.20;99.90;;;;;;5091130;28;20251;-78
2021/01/26 09:40:46;;;;;;;4.63;2.50;;;4.10;99.90;;;;;;5091132;28;20267;-78
2021/01/26 09:43:28;;;;;;;6.25;3.70;;;4.30;99.90;;;;;;5081801;28;20578;-78
2021/01/26 09:45:57;;;;;;;5.60;2.90;;;4.50;99.90;;;;;;5072474;28;20233;-77
2021/01/26 09:48:32;;;;;;;5.47;3.00;;;4.40;99.90;;;;;;5071482;28;20244;-78
2021/01/26 09:51:08;;;;;;;7.75;3.50;;;4.50;99.90;;;;;;5072088;28;20205;-79
2021/01/26 09:53:35;;;;;;;5.15;2.83;;;4.50;99.90;;;;;;5073871;28;20691;-78
2021/01/26 09:56:03;;;;;;;5.45;2.65;;;4.50;99.90;;;;;;5072436;28;20235;-78
2021/01/26 09:58:30;;;;;;;6.10;3.35;;;4.50;99.90;;;;;;5090232;28;20237;-77
2021/01/26 10:00:57;;;;;;;7.20;3.00;;;4.80;99.90;;;;;;5089973;28;20643;-79
2021/01/26 10:03:25;;;;;;;5.18;2.78;;;4.60;99.90;;;;;;5092818;28;20667;-78
2021/01/26 10:05:54;;;;;;;7.13;2.85;;;4.50;99.90;;;;;;5094810;28;20232;-78
2021/01/26 10:08:27;;;;;;;5.60;2.38;;;4.90;99.90;;;;;;5091835;28;20209;-78
2021/01/26 10:10:56;;;;;;;7.13;3.33;;;4.70;99.90;;;;;;5091712;28;20217;-78
2021/01/26 10:13:31;;;;;;;3.83;2.35;;;4.80;99.90;;;;;;5071955;28;20226;-78
2021/01/26 10:16:19;;;;;;;4.70;3.00;;;4.70;99.90;;;;;;5071217;28;20243;-78
2021/01/26 10:18:46;;;;;;;5.95;2.60;;;4.90;99.90;;;;;;5070907;28;20734;-78
2021/01/26 10:21:26;;;;;;;5.90;3.13;;;5.10;99.90;;;;;;5071835;28;20205;-78
2021/01/26 10:24:00;;;;;;;6.80;2.60;;;5.00;99.90;;;;;;5072018;28;20258;-79
2021/01/26 10:26:28;;;;;;;4.03;1.55;;;4.90;99.90;;;;;;5090952;28;20219;-79
2021/01/26 10:28:59;;;;;;;6.57;3.00;;;5.20;99.90;;;;;;5081008;28;20229;-79
2021/01/26 10:31:27;;;;;;;5.63;2.90;;;4.80;99.90;;;;;;5071156;28;20213;-79
2021/01/26 10:33:54;;;;;;;5.75;2.45;;;5.00;99.90;;;;;;5072111;28;20291;-79
2021/01/26 10:36:36;;;;;;;4.55;2.22;;;5.00;99.90;;;;;;5071475;28;20205;-79
2021/01/26 10:39:22;;;;;;;4.57;2.05;;;5.20;99.90;;;;;;5068783;28;20220;-78
2021/01/26 10:41:57;;;;;;;4.78;2.30;;;5.30;99.90;;;;;;5084341;28;20656;-79
2021/01/26 10:44:25;;;;;;;8.13;2.10;;;5.40;99.90;;;;;;5091986;28;20702;-79
2021/01/26 10:46:53;;;;;;;5.93;2.67;;;5.20;99.90;;;;;;5093067;28;20213;-79
2021/01/26 10:49:30;;;;;;;3.67;2.10;;;5.30;99.90;;;;;;5090642;28;20250;-79
2021/01/26 10:51:58;;;;;;;10.30;2.30;;;5.50;99.90;;;;;;5091362;28;20205;-79
2021/01/26 10:54:25;;;;;;;5.68;2.20;;;5.30;99.90;;;;;;5091656;28;20229;-79
2021/01/26 10:56:52;;;;;;;5.20;2.60;;;4.90;99.90;;;;;;5086629;28;20294;-79
2021/01/26 10:59:19;;;;;;;5.35;2.42;;;5.20;99.90;;;;;;5073924;28;20220;-76
2021/01/26 11:01:47;;;;;;;7.75;2.40;;;4.90;99.90;;;;;;5091581;28;20216;-78
2021/01/26 11:04:17;;;;;;;5.07;2.25;;;4.90;99.90;;;;;;5091292;28;20248;-80
2021/01/26 11:06:44;;;;;;;5.88;2.50;;;5.20;99.90;;;;;;5075719;28;20205;-79
2021/01/26 11:09:13;;;;;;;6.78;2.90;;;5.10;99.90;;;;;;5080272;28;20515;-78
2021/01/26 11:11:39;;;;;;;5.18;2.60;;;5.10;99.90;;;;;;5092214;28;20209;-78
2021/01/26 11:14:08;;;;;;;6.82;3.20;;;5.20;99.90;;;;;;5089171;28;20242;-78
2021/01/26 11:16:35;;;;;;;5.57;2.80;;;5.30;99.90;;;;;;5076550;28;20217;-77
2021/01/26 11:19:04;;;;;;;4.82;2.38;;;5.20;99.90;;;;;;5079673;28;20193;-76
2021/01/26 11:21:31;;;;;;;7.10;2.42;;;5.10;99.90;;;;;;5092315;28;20636;-75
2021/01/26 11:23:58;;;;;;;5.00;2.22;;;5.40;99.90;;;;;;5092581;28;20825;-75
2021/01/26 11:26:32;;;;;;;3.45;1.90;;;5.10;99.90;;;;;;5092695;28;20240;-76
2021/01/26 11:28:59;;;;;;;3.20;1.48;;;5.10;99.90;;;;;;5093443;28;20212;-78
2021/01/26 11:31:26;;;;;;;8.02;2.88;;;5.10;99.90;;;;;;5086148;28;20201;-78
2021/01/26 11:33:52;;;;;;;6.40;2.30;;;5.20;99.90;;;;;;5092509;28;20328;-78
2021/01/26 11:36:20;;;;;;;8.10;2.63;;;5.40;99.90;;;;;;5091535;28;20208;-78
2021/01/26 11:38:47;;;;;;;5.90;3.70;;;5.20;99.90;;;;;;5085119;28;20214;-74
2021/01/26 11:41:13;;;;;;;5.13;2.25;;;5.50;99.90;;;;;;5078072;28;20208;-75
2021/01/26 11:43:40;;;;;;;5.97;2.60;;;5.40;99.90;;;;;;5092956;28;20208;-75
2021/01/26 11:46:07;;;;;;;3.67;1.80;;;5.50;99.90;;;;;;5091452;28;20201;-75
2021/01/26 11:48:34;;;;;;;5.28;1.73;;;5.70;99.90;;;;;;5092445;28;20211;-74
2021/01/26 11:51:01;;;;;;;9.50;2.60;;;5.60;99.90;;;;;;5091735;28;20358;-75
2021/01/26 11:53:29;;;;;;;7.53;3.40;;;5.20;99.90;;;;;;5092197;28;20279;-74
2021/01/26 11:55:58;;;;;;;6.57;2.88;;;5.40;99.90;;;;;;5083273;28;20303;-80
2021/01/26 11:58:25;;;;;;;5.05;2.25;;;5.50;99.90;;;;;;5095054;28;20282;-78
2021/01/26 12:00:51;;;;;;;6.63;2.22;;;5.40;99.90;;;;;;5098910;28;20201;-78
2021/01/26 12:03:18;;;;;;;5.00;1.70;;;5.30;99.90;;;;;;5091143;28;20231;-80
2021/01/26 12:05:45;;;;;;;11.40;2.97;;;5.50;99.90;;;;;;5096942;28;20222;-78
2021/01/26 12:08:12;;;;;;;5.45;2.20;;;5.50;99.90;;;;;;5099854;28;20275;-79
2021/01/26 12:10:40;;;;;;;6.25;2.80;;;5.70;99.90;;;;;;5101224;28;20250;-85
2021/01/26 12:13:08;;;;;;;4.50;2.03;;;5.80;99.90;;;;;;5095689;28;20225;-80
2021/01/26 12:15:36;;;;;;;6.15;2.33;;;5.80;99.60;;;;;;5099691;28;20228;-83
2021/01/26 12:18:02;;;;;;;11.60;3.00;;;5.90;99.90;;;;;;5103434;28;20205;-79
2021/01/26 12:20:30;;;;;;;7.38;2.70;;;5.80;99.90;;;;;;5090285;28;20239;-80
2021/01/26 12:22:59;;;;;;;6.95;2.30;;;6.00;99.40;;;;;;5103724;28;20225;-79
2021/01/26 12:25:26;;;;;;;9.18;2.72;;;6.00;99.10;;;;;;5101667;28;20263;-80
2021/01/26 12:27:54;;;;;;;4.55;1.90;;;5.60;98.80;;;;;;5098994;28;20197;-80
2021/01/26 12:30:22;;;;;;;5.70;2.60;;;5.80;98.80;;;;;;5101879;28;20209;-80
2021/01/26 12:32:48;;;;;;;4.80;2.05;;;5.60;98.90;;;;;;5096632;28;20221;-80
2021/01/26 12:35:18;;;;;;;6.15;3.17;;;5.70;98.60;;;;;;5096511;28;20296;-80
2021/01/26 12:37:45;;;;;;;5.47;2.20;;;5.70;98.70;;;;;;5095155;28;20198;-79
2021/01/26 12:40:12;;;;;;;6.53;2.70;;;5.60;99.00;;;;;;5096030;28;20224;-80
2021/01/26 12:42:40;;;;;;;7.20;2.17;;;5.60;98.80;;;;;;5095704;28;20237;-80
2021/01/26 12:45:09;;;;;;;4.43;2.42;;;5.80;99.10;;;;;;5095943;28;20240;-79
2021/01/26 12:47:36;;;;;;;3.35;1.63;;;5.80;99.20;;;;;;5093843;28;20269;-78
2021/01/26 12:50:04;;;;;;;8.80;2.83;;;5.90;99.20;;;;;;5072933;28;20201;-79
2021/01/26 12:52:31;;;;;;;11.18;3.10;;;5.50;99.30;;;;;;5076960;28;20679;-79
2021/01/26 12:54:57;;;;;;;5.30;2.13;;;5.80;99.50;;;;;;5093488;28;20228;-79
2021/01/26 12:57:24;;;;;;;3.58;1.75;;;5.60;99.40;;;;;;5093428;28;20280;-79
2021/01/26 12:59:52;;;;;;;4.95;3.00;;;5.90;99.50;;;;;;5093488;28;20308;-79
2021/01/26 13:02:20;;;;;;;4.78;2.10;;;5.90;99.00;;;;;;5093703;28;20200;-79
2021/01/26 13:04:47;;;;;;;6.65;2.65;;;5.80;98.90;;;;;;5093928;28;20534;-79
2021/01/26 13:07:14;;;;;;;6.20;2.70;;;5.90;99.20;;;;;;5097283;28;20304;-78
2021/01/26 13:09:41;;;;;;;6.00;2.80;;;5.90;99.30;;;;;;5080443;28;20213;-78
2021/01/26 13:12:08;;;;;;;6.55;1.98;;;6.00;99.10;;;;;;5072333;28;20209;-78
2021/01/26 13:14:34;;;;;;;9.40;2.60;;;5.80;99.30;;;;;;5092171;28;20233;-79
2021/01/26 13:17:01;;;;;;;5.00;1.95;;;6.00;99.40;;;;;;5076453;28;20603;-78
2021/01/26 13:19:28;;;;;;;4.63;1.60;;;5.80;99.70;;;;;;5093013;28;20201;-79
2021/01/26 13:21:56;;;;;;;5.35;2.53;;;5.70;99.50;;;;;;5093490;28;20205;-79
2021/01/26 13:24:23;;;;;;;7.85;2.22;;;6.10;99.40;;;;;;5093264;28;20530;-79